createdAt,value
2023-03-28T00:00:49.262Z,2.70
2023-03-28T00:03:19.271Z,2.43
2023-03-28T00:05:50.245Z,2.93
2023-03-28T00:08:18.207Z,3.00
2023-03-28T00:10:45.822Z,3.20
2023-03-28T00:13:14.151Z,3.90
2023-03-28T00:15:42.427Z,3.30
2023-03-28T00:18:13.385Z,4.07
2023-03-28T00:20:45.313Z,3.37
2023-03-28T00:23:12.825Z,2.70
2023-03-28T00:25:42.163Z,2.60
2023-03-28T00:28:10.005Z,3.40
2023-03-28T00:30:37.028Z,2.83
2023-03-28T00:33:05.436Z,2.87
2023-03-28T00:35:33.275Z,4.20
2023-03-28T00:38:00.028Z,3.30
2023-03-28T00:40:27.414Z,3.13
2023-03-28T00:42:54.348Z,3.87
2023-03-28T00:45:23.961Z,3.43
2023-03-28T00:48:06.765Z,4.23
2023-03-28T00:50:46.960Z,4.53
2023-03-28T00:53:19.364Z,3.10
2023-03-28T00:55:52.689Z,3.30
2023-03-28T00:58:27.752Z,2.80
2023-03-28T01:00:56.129Z,2.70
2023-03-28T01:03:29.787Z,3.60
2023-03-28T01:05:58.025Z,3.10
2023-03-28T01:08:38.260Z,3.73
2023-03-28T01:11:06.194Z,3.20
2023-03-28T01:13:40.982Z,3.17
2023-03-28T01:16:08.961Z,3.37
2023-03-28T01:18:41.976Z,4.13
2023-03-28T01:21:23.698Z,3.23
2023-03-28T01:24:33.471Z,3.13
2023-03-28T01:27:15.902Z,3.23
2023-03-28T01:30:07.716Z,3.67
2023-03-28T01:32:57.139Z,3.57
2023-03-28T01:35:40.972Z,4.30
2023-03-28T01:38:20.263Z,3.60
2023-03-28T01:40:50.154Z,3.60
2023-03-28T01:43:38.625Z,4.50
2023-03-28T01:46:16.525Z,3.33
2023-03-28T01:48:59.733Z,3.57
2023-03-28T01:51:40.961Z,3.60
2023-03-28T01:54:22.741Z,3.17
2023-03-28T01:57:06.469Z,4.37
2023-03-28T01:59:58.842Z,2.77
2023-03-28T02:02:39.061Z,3.47
2023-03-28T02:05:24.109Z,3.50
2023-03-28T02:07:54.732Z,3.77
2023-03-28T02:10:33.293Z,3.30
2023-03-28T02:13:21.623Z,3.57
2023-03-28T02:16:01.446Z,3.63
2023-03-28T02:18:50.649Z,4.20
2023-03-28T02:21:50.271Z,3.60
2023-03-28T02:24:33.963Z,3.27
2023-03-28T02:27:41.127Z,4.30
2023-03-28T02:30:22.796Z,3.90
2023-03-28T02:32:50.641Z,3.70
2023-03-28T02:35:26.457Z,3.47
2023-03-28T02:38:11.307Z,4.00
2023-03-28T02:41:07.233Z,3.87
2023-03-28T02:43:54.901Z,4.30
2023-03-28T02:46:43.986Z,4.10
2023-03-28T02:49:20.754Z,4.10
2023-03-28T02:52:09.359Z,5.77
2023-03-28T02:55:03.223Z,4.07
2023-03-28T02:57:44.884Z,3.97
2023-03-28T03:00:17.294Z,4.70
2023-03-28T03:02:49.349Z,3.20
2023-03-28T03:05:17.671Z,4.00
2023-03-28T03:07:44.578Z,3.70
2023-03-28T03:10:14.109Z,4.00
2023-03-28T03:12:45.382Z,3.90
2023-03-28T03:15:17.061Z,3.87
2023-03-28T03:17:58.724Z,3.50
2023-03-28T03:20:34.199Z,4.03
2023-03-28T03:23:02.732Z,4.03
2023-03-28T03:25:32.578Z,4.47
2023-03-28T03:28:10.752Z,4.10
2023-03-28T03:30:37.699Z,4.73
2023-03-28T03:33:24.503Z,4.17
2023-03-28T03:35:58.367Z,3.73
2023-03-28T03:38:26.221Z,3.97
2023-03-28T03:40:53.432Z,4.40
2023-03-28T03:43:20.697Z,3.40
2023-03-28T03:45:47.689Z,3.90
2023-03-28T03:48:14.643Z,4.10
2023-03-28T03:50:41.747Z,5.63
2023-03-28T03:53:14.671Z,4.33
2023-03-28T03:55:50.690Z,4.30
2023-03-28T03:58:18.738Z,3.80
2023-03-28T04:00:48.832Z,4.77
2023-03-28T04:03:37.602Z,4.63
2023-03-28T04:06:05.220Z,5.00
2023-03-28T04:08:33.705Z,4.10
2023-03-28T04:11:00.903Z,3.50
2023-03-28T04:13:32.520Z,4.30
2023-03-28T04:16:02.654Z,5.17
2023-03-28T04:18:38.122Z,3.80
2023-03-28T04:21:06.036Z,4.23
2023-03-28T04:23:43.547Z,4.90
2023-03-28T04:26:26.156Z,5.10
2023-03-28T04:29:04.152Z,7.57
2023-03-28T04:31:35.894Z,4.70
2023-03-28T04:34:30.527Z,5.40
2023-03-28T04:37:15.264Z,7.63
2023-03-28T04:39:49.071Z,4.67
2023-03-28T04:42:43.003Z,4.93
2023-03-28T04:45:32.978Z,6.00
2023-03-28T04:48:09.837Z,4.80
2023-03-28T04:50:38.793Z,5.70
2023-03-28T04:53:05.704Z,4.97
2023-03-28T04:55:33.013Z,5.90
2023-03-28T04:58:10.470Z,5.40
2023-03-28T05:00:39.359Z,5.50
2023-03-28T05:03:26.604Z,10.30
2023-03-28T05:06:02.813Z,8.60
2023-03-28T05:08:31.552Z,6.47
2023-03-28T05:10:59.706Z,5.50
2023-03-28T05:13:27.299Z,4.23
2023-03-28T05:16:05.712Z,4.90
2023-03-28T05:18:46.019Z,5.97
2023-03-28T05:21:12.931Z,5.10
2023-03-28T05:23:39.722Z,5.43
2023-03-28T05:26:16.174Z,4.80
2023-03-28T05:28:42.986Z,4.60
2023-03-28T05:31:10.008Z,5.20
2023-03-28T05:33:37.132Z,4.53
2023-03-28T05:36:05.233Z,4.70
2023-03-28T05:38:33.748Z,5.00
2023-03-28T05:41:06.882Z,4.93
2023-03-28T05:43:34.073Z,5.10
2023-03-28T05:46:01.177Z,4.40
2023-03-28T05:48:39.254Z,4.80
2023-03-28T05:51:06.408Z,4.70
2023-03-28T05:53:34.664Z,4.57
2023-03-28T05:56:01.659Z,5.63
2023-03-28T05:58:29.485Z,5.80
2023-03-28T06:00:56.504Z,4.70
2023-03-28T06:03:25.773Z,5.00
2023-03-28T06:05:52.602Z,4.80
2023-03-28T06:08:27.279Z,5.53
2023-03-28T06:10:54.045Z,3.50
2023-03-28T06:13:26.069Z,4.77
2023-03-28T06:15:53.024Z,4.73
2023-03-28T06:18:27.679Z,4.20
2023-03-28T06:20:54.871Z,4.57
2023-03-28T06:23:22.387Z,3.87
2023-03-28T06:25:49.850Z,4.27
2023-03-28T06:28:18.677Z,4.20
2023-03-28T06:31:04.455Z,4.27
2023-03-28T06:33:31.924Z,3.90
2023-03-28T06:35:59.082Z,5.33
2023-03-28T06:38:28.388Z,5.50
2023-03-28T06:40:56.236Z,5.03
2023-03-28T06:43:22.971Z,5.00
2023-03-28T06:46:06.994Z,5.30
2023-03-28T06:48:36.533Z,6.10
2023-03-28T06:51:24.098Z,5.17
2023-03-28T06:53:51.044Z,5.27
2023-03-28T06:56:23.355Z,5.77
2023-03-28T06:58:50.109Z,5.50
2023-03-28T07:01:21.488Z,5.93
2023-03-28T07:03:59.786Z,5.77
2023-03-28T07:06:27.810Z,5.40
2023-03-28T07:08:57.485Z,5.60
2023-03-28T07:11:33.595Z,5.43
2023-03-28T07:14:00.530Z,5.57
2023-03-28T07:16:27.445Z,6.13
2023-03-28T07:18:54.293Z,6.13
2023-03-28T07:21:27.031Z,5.00
2023-03-28T07:23:56.969Z,4.90
2023-03-28T07:26:27.896Z,6.20
2023-03-28T07:28:57.837Z,5.00
2023-03-28T07:31:25.730Z,5.10
2023-03-28T07:33:52.553Z,4.63
2023-03-28T07:36:21.459Z,5.10
2023-03-28T07:38:55.760Z,4.93
2023-03-28T07:41:23.396Z,4.77
2023-03-28T07:43:50.249Z,5.07
2023-03-28T07:46:17.260Z,4.73
2023-03-28T07:48:46.360Z,3.90
2023-03-28T07:51:14.016Z,4.47
2023-03-28T07:53:40.823Z,3.80
2023-03-28T07:56:12.366Z,4.17
2023-03-28T07:58:57.889Z,4.60
2023-03-28T08:01:25.105Z,4.07
2023-03-28T08:03:56.864Z,3.73
2023-03-28T08:06:34.149Z,3.07
2023-03-28T08:09:01.906Z,2.90
2023-03-28T08:11:36.359Z,3.67
2023-03-28T08:14:04.854Z,3.73
2023-03-28T08:16:32.926Z,3.33
2023-03-28T08:19:10.032Z,2.97
2023-03-28T08:21:54.056Z,3.37
2023-03-28T08:24:32.962Z,2.87
2023-03-28T08:27:09.930Z,2.97
2023-03-28T08:29:36.915Z,2.83
2023-03-28T08:32:06.316Z,1.70
2023-03-28T08:34:35.465Z,2.10
2023-03-28T08:37:08.553Z,2.00
2023-03-28T08:39:37.323Z,2.83
2023-03-28T08:42:26.101Z,2.80
2023-03-28T08:45:18.917Z,3.07
2023-03-28T08:47:54.774Z,2.40
2023-03-28T08:50:39.222Z,2.27
2023-03-28T08:53:12.895Z,2.57
2023-03-28T08:55:42.826Z,3.00
2023-03-28T08:58:19.868Z,2.90
2023-03-28T09:00:48.423Z,3.20
2023-03-28T09:03:18.779Z,2.40
2023-03-28T09:05:52.828Z,4.40
2023-03-28T09:08:52.310Z,1.93
2023-03-28T09:11:46.662Z,2.30
2023-03-28T09:14:52.114Z,1.70
2023-03-28T09:17:44.704Z,1.33
2023-03-28T09:20:30.125Z,2.97
2023-03-28T09:23:24.321Z,2.00
2023-03-28T09:26:20.169Z,2.53
2023-03-28T09:29:16.044Z,1.87
2023-03-28T09:31:48.204Z,1.60
2023-03-28T09:34:42.522Z,1.87
2023-03-28T09:37:41.323Z,3.53
2023-03-28T09:40:28.568Z,1.33
2023-03-28T09:43:45.116Z,1.80
2023-03-28T09:46:39.856Z,1.10
2023-03-28T09:49:26.216Z,1.20
2023-03-28T09:51:57.960Z,1.40
2023-03-28T09:54:31.065Z,1.53
2023-03-28T09:57:03.698Z,1.50
2023-03-28T09:59:40.808Z,1.43
2023-03-28T10:02:33.739Z,1.20
2023-03-28T10:05:32.124Z,1.30
2023-03-28T10:08:26.544Z,1.60
2023-03-28T10:11:17.140Z,1.60
2023-03-28T10:13:49.778Z,1.47
2023-03-28T10:16:26.998Z,1.50
2023-03-28T10:19:39.563Z,1.60
2023-03-28T10:22:33.498Z,1.57
2023-03-28T10:25:03.276Z,1.10
2023-03-28T10:27:32.892Z,1.37
2023-03-28T10:30:19.909Z,2.40
2023-03-28T10:33:07.257Z,2.80
2023-03-28T10:36:01.227Z,1.87
2023-03-28T10:38:37.600Z,1.20
2023-03-28T10:41:30.397Z,1.40
2023-03-28T10:44:19.355Z,1.30
2023-03-28T10:46:56.599Z,1.53
2023-03-28T10:49:38.054Z,1.17
2023-03-28T10:52:23.945Z,1.43
2023-03-28T10:55:14.682Z,1.17
2023-03-28T10:58:10.700Z,1.43
2023-03-28T11:01:03.120Z,1.60
2023-03-28T11:03:44.376Z,1.07
2023-03-28T11:06:19.656Z,1.67
2023-03-28T11:08:47.488Z,1.17
2023-03-28T11:11:29.908Z,1.50
2023-03-28T11:14:19.734Z,1.10
2023-03-28T11:16:46.909Z,1.10
2023-03-28T11:20:17.795Z,1.13
2023-03-28T11:23:28.727Z,1.10
2023-03-28T11:26:22.012Z,1.50
2023-03-28T11:29:44.312Z,1.30
2023-03-28T11:32:24.808Z,1.37
2023-03-28T11:35:12.537Z,1.57
2023-03-28T11:38:04.711Z,1.37
2023-03-28T11:40:52.279Z,1.70
2023-03-28T11:43:49.827Z,1.53
2023-03-28T11:46:21.970Z,0.93
2023-03-28T11:48:58.033Z,1.50
2023-03-28T11:51:33.803Z,1.70
2023-03-28T11:54:12.091Z,1.20
2023-03-28T11:56:56.766Z,1.10
2023-03-28T12:00:00.009Z,1.30
2023-03-28T12:02:31.081Z,0.90
2023-03-28T12:05:06.275Z,1.33
2023-03-28T12:07:47.139Z,1.27
2023-03-28T12:10:36.336Z,1.50
2023-03-28T12:13:24.106Z,1.30
2023-03-28T12:16:05.864Z,0.87
2023-03-28T12:18:42.176Z,1.30
2023-03-28T12:21:30.041Z,1.63
2023-03-28T12:24:16.079Z,1.53
2023-03-28T12:27:36.800Z,1.20
2023-03-28T12:30:30.879Z,1.20
2023-03-28T12:33:27.742Z,1.43
2023-03-28T12:36:06.365Z,1.30
2023-03-28T12:38:55.653Z,1.33
2023-03-28T12:41:33.349Z,1.30
2023-03-28T12:44:14.004Z,1.80
2023-03-28T12:46:51.922Z,1.27
2023-03-28T12:49:44.763Z,1.20
2023-03-28T12:52:21.990Z,1.40
2023-03-28T12:55:08.229Z,1.67
2023-03-28T12:57:46.192Z,1.53
2023-03-28T13:00:49.135Z,2.30
2023-03-28T13:04:02.025Z,1.03
2023-03-28T13:06:50.358Z,1.20
2023-03-28T13:09:41.991Z,1.30
2023-03-28T13:12:30.822Z,1.13
2023-03-28T13:15:16.223Z,1.33
2023-03-28T13:17:47.836Z,1.20
2023-03-28T13:20:17.656Z,1.50
2023-03-28T13:22:54.581Z,1.10
2023-03-28T13:25:28.028Z,1.60
2023-03-28T13:28:00.546Z,1.00
2023-03-28T13:30:30.547Z,0.90
2023-03-28T13:33:00.483Z,1.30
2023-03-28T13:35:59.419Z,0.90
2023-03-28T13:38:29.197Z,1.33
2023-03-28T13:41:09.197Z,0.87
2023-03-28T13:43:43.688Z,1.03
2023-03-28T13:46:25.427Z,1.40
2023-03-28T13:49:10.876Z,1.20
2023-03-28T13:51:40.459Z,0.90
2023-03-28T13:54:10.706Z,1.20
2023-03-28T13:56:40.920Z,0.90
2023-03-28T13:59:11.994Z,1.63
2023-03-28T14:01:46.775Z,0.90
2023-03-28T14:04:31.197Z,0.90
2023-03-28T14:06:58.364Z,1.23
2023-03-28T14:09:28.240Z,1.10
2023-03-28T14:12:08.675Z,1.10
2023-03-28T14:14:47.799Z,1.20
2023-03-28T14:17:18.154Z,1.03
2023-03-28T14:19:52.628Z,1.10
2023-03-28T14:22:21.693Z,2.07
2023-03-28T14:24:51.853Z,1.50
2023-03-28T14:27:35.769Z,1.60
2023-03-28T14:30:21.567Z,1.50
2023-03-28T14:33:02.336Z,3.83
2023-03-28T14:35:31.998Z,2.00
2023-03-28T14:38:07.231Z,2.10
2023-03-28T14:40:39.249Z,1.20
2023-03-28T14:43:07.614Z,1.13
2023-03-28T14:45:51.711Z,1.23
2023-03-28T14:48:23.139Z,1.80
2023-03-28T14:50:53.380Z,1.40
2023-03-28T14:53:27.195Z,5.07
2023-03-28T14:56:00.811Z,2.00
2023-03-28T14:58:28.989Z,1.30
2023-03-28T15:01:00.130Z,1.47
2023-03-28T15:03:40.435Z,1.30
2023-03-28T15:06:11.209Z,1.40
2023-03-28T15:08:39.170Z,1.60
2023-03-28T15:11:17.101Z,1.30
2023-03-28T15:13:46.566Z,1.30
2023-03-28T15:16:20.361Z,1.40
2023-03-28T15:18:55.592Z,1.07
2023-03-28T15:21:23.830Z,1.20
2023-03-28T15:23:57.397Z,1.27
2023-03-28T15:26:32.906Z,1.17
2023-03-28T15:29:00.314Z,1.10
2023-03-28T15:31:27.989Z,1.00
2023-03-28T15:33:55.337Z,1.20
2023-03-28T15:36:30.384Z,2.07
2023-03-28T15:39:17.193Z,1.10
2023-03-28T15:41:48.268Z,1.30
2023-03-28T15:44:35.814Z,1.33
2023-03-28T15:47:13.121Z,1.60
2023-03-28T15:49:39.982Z,1.90
2023-03-28T15:52:16.240Z,1.37
2023-03-28T15:54:48.589Z,1.30
2023-03-28T15:57:16.914Z,3.03
2023-03-28T15:59:48.503Z,1.43
2023-03-28T16:02:24.084Z,1.33
2023-03-28T16:05:25.448Z,1.30
2023-03-28T16:07:52.260Z,1.13
2023-03-28T16:10:21.460Z,1.30
2023-03-28T16:13:14.277Z,1.20
2023-03-28T16:16:26.384Z,1.30
2023-03-28T16:19:02.523Z,1.27
2023-03-28T16:21:29.422Z,1.20
2023-03-28T16:23:56.157Z,1.50
2023-03-28T16:26:22.913Z,1.60
2023-03-28T16:28:49.569Z,1.07
2023-03-28T16:31:16.384Z,1.57
2023-03-28T16:33:43.211Z,1.10
2023-03-28T16:36:13.052Z,1.50
2023-03-28T16:38:40.194Z,1.27
2023-03-28T16:41:07.357Z,1.33
2023-03-28T16:43:34.088Z,1.30
2023-03-28T16:46:01.082Z,1.43
2023-03-28T16:48:28.121Z,1.67
2023-03-28T16:50:56.235Z,1.40
2023-03-28T16:53:23.345Z,1.03
2023-03-28T16:55:51.200Z,1.30
2023-03-28T16:58:17.942Z,1.10
2023-03-28T17:00:47.202Z,1.47
2023-03-28T17:03:14.171Z,1.20
2023-03-28T17:05:41.733Z,1.40
2023-03-28T17:08:08.466Z,1.10
2023-03-28T17:10:40.037Z,1.93
2023-03-28T17:13:07.625Z,1.57
2023-03-28T17:15:35.364Z,1.40
2023-03-28T17:18:02.804Z,1.00
2023-03-28T17:20:31.105Z,1.30
2023-03-28T17:22:58.590Z,1.53
2023-03-28T17:25:25.776Z,1.40
2023-03-28T17:27:52.692Z,1.20
2023-03-28T17:30:19.400Z,2.17
2023-03-28T17:32:46.646Z,1.40
2023-03-28T17:35:14.697Z,0.90
2023-03-28T17:37:41.712Z,1.40
2023-03-28T17:40:09.030Z,1.40
2023-03-28T17:42:35.826Z,1.00
2023-03-28T17:45:02.627Z,1.53
2023-03-28T17:47:30.423Z,1.43
2023-03-28T17:50:00.274Z,1.00
2023-03-28T17:52:32.039Z,1.20
2023-03-28T17:54:59.202Z,1.43
2023-03-28T17:57:26.604Z,1.30
2023-03-28T17:59:53.714Z,1.17
2023-03-28T18:02:20.664Z,1.40
2023-03-28T18:04:58.738Z,1.50
2023-03-28T18:07:28.642Z,1.50
2023-03-28T18:10:00.915Z,2.27
2023-03-28T18:12:27.734Z,4.03
2023-03-28T18:14:54.429Z,5.80
2023-03-28T18:17:21.427Z,5.50
2023-03-28T18:19:50.799Z,4.93
2023-03-28T18:22:18.182Z,3.23
2023-03-28T18:24:44.915Z,2.47
2023-03-28T18:27:11.585Z,3.17
2023-03-28T18:29:38.420Z,3.13
2023-03-28T18:32:05.811Z,2.07
2023-03-28T18:34:32.839Z,1.93
2023-03-28T18:37:00.190Z,8.43
2023-03-28T18:39:27.278Z,25.83
2023-03-28T18:41:53.990Z,11.70
2023-03-28T18:44:21.115Z,2.37
2023-03-28T18:46:54.786Z,1.77
2023-03-28T18:49:22.750Z,1.43
2023-03-28T18:51:49.705Z,2.03
2023-03-28T18:54:17.224Z,1.40
2023-03-28T18:56:44.061Z,1.90
2023-03-28T18:59:11.278Z,1.40
2023-03-28T19:01:41.243Z,1.40
2023-03-28T19:04:09.747Z,1.50
2023-03-28T19:06:36.659Z,1.87
2023-03-28T19:09:05.383Z,1.50
2023-03-28T19:11:32.109Z,1.73
2023-03-28T19:13:59.085Z,1.57
2023-03-28T19:16:26.855Z,1.47
2023-03-28T19:18:53.857Z,2.23
2023-03-28T19:21:20.656Z,3.00
2023-03-28T19:23:48.672Z,3.60
2023-03-28T19:26:16.271Z,3.07
2023-03-28T19:28:43.222Z,3.23
2023-03-28T19:31:11.950Z,3.63
2023-03-28T19:33:40.892Z,2.53
2023-03-28T19:36:08.715Z,3.00
2023-03-28T19:38:37.353Z,2.80
2023-03-28T19:41:10.355Z,2.63
2023-03-28T19:43:38.026Z,3.03
2023-03-28T19:46:07.078Z,2.10
2023-03-28T19:48:34.874Z,2.37
2023-03-28T19:51:01.776Z,2.83
2023-03-28T19:53:28.599Z,2.60
2023-03-28T19:55:57.059Z,2.20
2023-03-28T19:58:23.893Z,2.17
2023-03-28T20:00:50.802Z,2.20
2023-03-28T20:03:18.731Z,2.40
2023-03-28T20:05:47.120Z,2.57
2023-03-28T20:08:14.449Z,3.80
2023-03-28T20:10:42.144Z,4.00
2023-03-28T20:13:10.253Z,4.90
2023-03-28T20:15:41.802Z,5.00
2023-03-28T20:18:10.129Z,4.90
2023-03-28T20:20:42.692Z,4.30
2023-03-28T20:23:11.570Z,4.50
2023-03-28T20:25:38.269Z,5.17
2023-03-28T20:28:05.100Z,4.00
2023-03-28T20:30:32.277Z,4.20
2023-03-28T20:32:59.415Z,3.70
2023-03-28T20:35:27.339Z,3.33
2023-03-28T20:37:54.797Z,3.67
2023-03-28T20:40:22.856Z,4.27
2023-03-28T20:42:52.578Z,3.50
2023-03-28T20:45:23.173Z,4.17
2023-03-28T20:47:58.716Z,3.30
2023-03-28T20:50:34.016Z,3.40
2023-03-28T20:53:02.119Z,3.33
2023-03-28T20:55:29.605Z,3.13
2023-03-28T20:57:56.726Z,3.60
2023-03-28T21:00:24.787Z,3.00
2023-03-28T21:02:55.247Z,3.40
2023-03-28T21:05:24.701Z,3.73
2023-03-28T21:07:52.012Z,3.50
2023-03-28T21:10:19.414Z,3.70
2023-03-28T21:12:47.676Z,3.80
2023-03-28T21:15:15.342Z,3.50
2023-03-28T21:17:42.099Z,3.27
2023-03-28T21:20:10.529Z,3.13
2023-03-28T21:22:38.162Z,3.50
2023-03-28T21:25:06.146Z,3.20
2023-03-28T21:27:34.626Z,3.80
2023-03-28T21:30:04.226Z,3.40
2023-03-28T21:32:33.142Z,5.10
2023-03-28T21:35:02.320Z,3.70
2023-03-28T21:37:29.103Z,4.90
2023-03-28T21:39:56.508Z,3.80
2023-03-28T21:42:23.516Z,3.80
2023-03-28T21:44:50.478Z,4.60
2023-03-28T21:47:17.271Z,3.70
2023-03-28T21:49:45.933Z,3.37
2023-03-28T21:52:12.953Z,3.80
2023-03-28T21:54:39.755Z,3.77
2023-03-28T21:57:06.700Z,3.70
2023-03-28T21:59:33.491Z,3.63
2023-03-28T22:02:00.502Z,2.90
2023-03-28T22:04:28.970Z,2.43
2023-03-28T22:06:56.576Z,3.07
2023-03-28T22:09:23.284Z,3.30
2023-03-28T22:11:50.035Z,4.00
2023-03-28T22:14:16.990Z,3.37
2023-03-28T22:16:43.771Z,4.13
2023-03-28T22:19:11.287Z,3.33
2023-03-28T22:21:38.115Z,2.97
2023-03-28T22:24:10.360Z,3.03
2023-03-28T22:26:37.393Z,3.20
2023-03-28T22:29:05.051Z,3.43
2023-03-28T22:31:32.274Z,5.80
2023-03-28T22:33:59.007Z,3.70
2023-03-28T22:36:26.045Z,3.20
2023-03-28T22:38:54.767Z,3.57
2023-03-28T22:41:21.818Z,3.83
2023-03-28T22:43:48.578Z,4.00
2023-03-28T22:46:18.352Z,3.00
2023-03-28T22:48:45.209Z,3.80
2023-03-28T22:51:12.192Z,2.93
2023-03-28T22:53:40.055Z,3.17
2023-03-28T22:56:07.467Z,2.90
2023-03-28T22:58:34.489Z,3.40
2023-03-28T23:01:01.838Z,2.73
2023-03-28T23:03:28.824Z,2.70
2023-03-28T23:05:55.625Z,3.00
2023-03-28T23:08:22.494Z,2.67
2023-03-28T23:10:49.243Z,3.20
2023-03-28T23:13:16.583Z,2.97
2023-03-28T23:15:44.043Z,3.23
2023-03-28T23:18:10.911Z,2.90
2023-03-28T23:20:38.290Z,2.60
2023-03-28T23:23:05.166Z,3.27
2023-03-28T23:25:33.106Z,3.40
2023-03-28T23:27:59.966Z,2.97
2023-03-28T23:30:27.059Z,3.10
2023-03-28T23:32:54.203Z,3.40
2023-03-28T23:35:21.070Z,2.63
2023-03-28T23:37:48.033Z,3.10
2023-03-28T23:40:15.280Z,3.70
2023-03-28T23:42:44.250Z,3.10
2023-03-28T23:45:12.956Z,3.70
2023-03-28T23:47:40.032Z,3.50
2023-03-28T23:50:08.914Z,4.27
2023-03-28T23:52:36.715Z,4.47
2023-03-28T23:55:03.759Z,3.30
2023-03-28T23:57:30.531Z,3.50
2023-03-28T23:59:57.452Z,3.70
